Main page
METAR-TAF:

METAR-TAF

Airports :

Caracas, Venezuela

Simón Bolívar International Airport

latitude: 10-36N, longitude: 066-59W, elevation: 43 m

Current weather observation

The report was made 1 hour and 10 minutes ago, at 16:00 UTC
Wind 2 kt from the Northeast
Temperature 32°C
Humidity 56%
Pressure 1013 hPa
Visibility 10 km or more
Scattered clouds at a height of 1600 ft

METAR: SVMI 261600Z 05002KT 9999 SCT016 32/22 Q1013

Time: 13:10 (17:10 UTC)

Forecast

The report was made 7 hours and 10 minutes ago, at 10:00 UTC
Forecast valid from 26 at 12 UTC to 27 at 12 UTC
Wind 7 kt from the Northeast
Visibility 10 km or more
Scattered clouds at a height of 1600 ft
Becoming
from 26 at 12 UTC to 26 at 16 UTC
Wind 4 kt from the Northeast
Few clouds at a height of 1600 ft

TAF: SVMI 261000Z 2612/2712 05007KT 9999 SCT016 TX32/18Z TN23/08Z BECMG 2612/2616 05004KT FEW016

Weather observations and forecasts of more than 4000 airports (METAR and TAF reports).

The available stations are represented by yellow and red dots on the map.

Hover mouse over dot to see the name of the station.

Then click to see weather observations and forecasts.

To change the map : click on the green buttons with a black cross to zoom in, on the green button with a dash to zoom out, or on the green arrows for adjacent maps.


METAR-TAF: